createdAt,value
2023-02-05T00:04:27.481Z,7.07
2023-02-05T00:09:31.012Z,7.73
2023-02-05T00:14:34.802Z,10.60
2023-02-05T00:19:38.037Z,12.97
2023-02-05T00:24:41.514Z,9.37
2023-02-05T00:29:44.719Z,8.07
2023-02-05T00:34:47.873Z,10.97
2023-02-05T00:39:50.971Z,5.83
2023-02-05T00:44:54.101Z,6.30
2023-02-05T00:49:57.300Z,4.10
2023-02-05T00:55:00.414Z,6.40
2023-02-05T01:00:04.149Z,6.07
2023-02-05T01:05:08.145Z,4.23
2023-02-05T01:10:11.539Z,5.47
2023-02-05T01:15:14.979Z,4.93
2023-02-05T01:20:19.483Z,8.53
2023-02-05T01:25:22.919Z,4.03
2023-02-05T01:30:26.108Z,6.60
2023-02-05T01:35:29.234Z,6.40
2023-02-05T01:40:32.468Z,7.00
2023-02-05T01:46:07.889Z,5.17
2023-02-05T01:51:14.333Z,6.33
2023-02-05T01:56:40.374Z,12.03
2023-02-05T02:01:44.537Z,10.63
2023-02-05T02:06:47.957Z,6.87
2023-02-05T02:11:51.530Z,11.07
2023-02-05T02:16:55.873Z,8.87
2023-02-05T02:22:31.520Z,11.50
2023-02-05T02:28:18.238Z,10.53
2023-02-05T02:33:50.579Z,10.80
2023-02-05T02:39:01.847Z,8.73
2023-02-05T02:44:14.971Z,11.63
2023-02-05T02:49:41.205Z,13.03
2023-02-05T02:54:48.187Z,9.77
2023-02-05T02:59:54.166Z,7.23
2023-02-05T03:05:07.557Z,12.83
2023-02-05T03:10:23.070Z,8.93
2023-02-05T03:15:26.337Z,13.30
2023-02-05T03:20:35.390Z,12.63
2023-02-05T03:25:38.770Z,8.87
2023-02-05T03:31:22.326Z,10.77
2023-02-05T03:36:51.459Z,8.53
2023-02-05T03:42:04.048Z,8.07
2023-02-05T03:47:42.673Z,7.23
2023-02-05T03:52:53.991Z,14.10
2023-02-05T03:58:06.924Z,16.13
2023-02-05T04:03:10.388Z,10.40
2023-02-05T04:08:13.860Z,27.90
2023-02-05T04:13:17.141Z,15.90
2023-02-05T04:18:20.655Z,16.93
2023-02-05T04:23:24.058Z,18.27
2023-02-05T04:28:27.514Z,27.83
2023-02-05T04:33:30.774Z,23.30
2023-02-05T04:38:34.165Z,21.60
2023-02-05T04:43:37.323Z,25.40
2023-02-05T04:48:40.840Z,17.77
2023-02-05T04:53:44.237Z,13.57
2023-02-05T04:58:47.444Z,18.33
2023-02-05T05:03:51.386Z,13.10
2023-02-05T05:08:54.977Z,12.17
2023-02-05T05:13:58.446Z,13.97
2023-02-05T05:19:01.551Z,11.87
2023-02-05T05:24:04.967Z,14.73
2023-02-05T05:29:08.176Z,6.47
2023-02-05T05:34:11.366Z,14.50
2023-02-05T05:39:34.467Z,9.93
2023-02-05T05:44:37.701Z,11.07
2023-02-05T05:49:40.805Z,12.13
2023-02-05T05:54:44.224Z,11.57
2023-02-05T05:59:47.402Z,6.77
2023-02-05T06:04:50.898Z,8.00
2023-02-05T06:09:57.130Z,9.50
2023-02-05T06:15:00.251Z,10.67
2023-02-05T06:20:03.570Z,4.27
2023-02-05T06:25:07.395Z,11.27
2023-02-05T06:30:12.116Z,12.73
2023-02-05T06:35:16.013Z,11.93
2023-02-05T06:40:22.589Z,12.13
2023-02-05T06:45:25.877Z,7.47
2023-02-05T06:50:29.071Z,7.80
2023-02-05T06:55:32.422Z,11.23
2023-02-05T07:00:36.272Z,6.57
2023-02-05T07:05:39.358Z,10.33
2023-02-05T07:10:42.513Z,9.10
2023-02-05T07:15:46.317Z,8.53
2023-02-05T07:20:49.566Z,11.33
2023-02-05T07:25:52.949Z,12.67
2023-02-05T07:30:56.183Z,13.00
2023-02-05T07:36:02.797Z,14.13
2023-02-05T07:41:12.156Z,12.33
2023-02-05T07:46:18.252Z,11.20
2023-02-05T07:51:25.350Z,17.20
2023-02-05T07:56:30.463Z,12.13
2023-02-05T08:01:34.303Z,19.50
2023-02-05T08:06:38.279Z,19.07
2023-02-05T08:11:41.395Z,13.40
2023-02-05T08:16:44.666Z,16.90
2023-02-05T08:21:47.920Z,13.13
2023-02-05T08:26:51.072Z,22.27
2023-02-05T08:31:54.754Z,28.90
2023-02-05T08:36:58.465Z,28.87
2023-02-05T08:42:02.194Z,26.90
2023-02-05T08:47:05.703Z,26.03
2023-02-05T08:52:08.844Z,22.10
2023-02-05T08:57:12.183Z,26.10
2023-02-05T09:02:16.433Z,24.93
2023-02-05T09:07:19.614Z,22.33
2023-02-05T09:12:23.281Z,24.07
2023-02-05T09:17:27.179Z,20.20
2023-02-05T09:22:30.393Z,23.77
2023-02-05T09:27:33.808Z,24.50
2023-02-05T09:32:37.996Z,21.10
2023-02-05T09:37:41.066Z,20.03
2023-02-05T09:43:09.499Z,16.40
2023-02-05T09:48:49.978Z,22.23
2023-02-05T09:53:57.758Z,19.37
2023-02-05T09:59:00.930Z,25.97
2023-02-05T10:04:06.645Z,21.63
2023-02-05T10:09:19.923Z,27.33
2023-02-05T10:14:49.480Z,31.60
2023-02-05T10:20:26.581Z,24.87
2023-02-05T10:25:50.624Z,27.10
2023-02-05T10:31:11.726Z,28.60
2023-02-05T10:36:16.988Z,20.93
2023-02-05T10:41:28.816Z,20.13
2023-02-05T10:46:35.882Z,22.83
2023-02-05T10:51:43.018Z,22.60
2023-02-05T10:56:46.845Z,20.40
2023-02-05T11:01:52.092Z,19.70
2023-02-05T11:06:55.475Z,22.63
2023-02-05T11:12:03.349Z,16.77
2023-02-05T11:17:25.153Z,20.37
2023-02-05T11:22:46.853Z,15.63
2023-02-05T11:28:01.774Z,16.87
2023-02-05T11:33:23.583Z,21.80
2023-02-05T11:38:54.364Z,20.70
2023-02-05T11:44:01.382Z,15.43
2023-02-05T11:49:05.595Z,13.63
2023-02-05T11:54:31.345Z,16.57
2023-02-05T11:59:36.784Z,15.37
2023-02-05T12:04:47.645Z,16.07
2023-02-05T12:09:56.048Z,11.90
2023-02-05T12:15:21.090Z,13.77
2023-02-05T12:20:31.108Z,13.33
2023-02-05T12:26:06.788Z,14.07
2023-02-05T12:31:41.441Z,15.20
2023-02-05T12:36:54.296Z,17.17
2023-02-05T12:42:17.190Z,15.97
2023-02-05T12:47:36.492Z,19.33
2023-02-05T12:53:16.034Z,17.43
2023-02-05T12:58:21.399Z,19.30
2023-02-05T13:03:30.505Z,18.87
2023-02-05T13:08:49.507Z,16.87
2023-02-05T13:14:09.758Z,23.43
2023-02-05T13:19:27.304Z,24.40
2023-02-05T13:25:24.667Z,23.50
2023-02-05T13:30:45.013Z,20.60
2023-02-05T13:36:25.541Z,24.00
2023-02-05T13:41:49.235Z,23.43
2023-02-05T13:47:20.299Z,19.53
2023-02-05T13:52:46.487Z,24.87
2023-02-05T13:58:15.943Z,19.27
2023-02-05T14:03:34.062Z,16.20
2023-02-05T14:08:40.834Z,19.33
2023-02-05T14:14:33.866Z,19.43
2023-02-05T14:19:47.308Z,15.13
2023-02-05T14:24:51.868Z,16.23
2023-02-05T14:29:57.999Z,17.00
2023-02-05T14:35:04.197Z,19.57
2023-02-05T14:40:30.140Z,18.13
2023-02-05T14:45:36.280Z,22.17
2023-02-05T14:50:42.507Z,22.57
2023-02-05T14:55:50.944Z,19.07
2023-02-05T15:01:52.291Z,21.57
2023-02-05T15:07:02.011Z,15.33
2023-02-05T15:12:09.124Z,14.90
2023-02-05T15:17:15.912Z,11.17
2023-02-05T15:22:44.595Z,14.77
2023-02-05T15:28:07.915Z,12.30
2023-02-05T15:33:32.444Z,13.00
2023-02-05T15:38:47.083Z,14.10
2023-02-05T15:44:03.881Z,14.33
2023-02-05T15:49:10.036Z,17.20
2023-02-05T15:54:21.236Z,17.47
2023-02-05T15:59:32.379Z,16.27
2023-02-05T16:04:42.082Z,11.40
2023-02-05T16:09:50.298Z,11.23
2023-02-05T16:15:02.087Z,15.03
2023-02-05T16:20:19.835Z,15.33
2023-02-05T16:26:05.830Z,16.30
2023-02-05T16:31:26.002Z,17.07
2023-02-05T16:36:43.837Z,23.00
2023-02-05T16:42:08.080Z,19.67
2023-02-05T16:47:14.799Z,14.33
2023-02-05T16:52:33.933Z,15.30
2023-02-05T16:57:41.786Z,16.90
2023-02-05T17:02:50.648Z,18.03
2023-02-05T17:07:59.622Z,19.17
2023-02-05T17:13:07.183Z,18.47
2023-02-05T17:18:27.816Z,21.17
2023-02-05T17:23:36.261Z,21.90
2023-02-05T17:28:45.675Z,19.37
2023-02-05T17:33:53.893Z,29.97
2023-02-05T17:39:04.678Z,21.87
2023-02-05T17:44:23.861Z,19.40
2023-02-05T17:49:29.607Z,25.73
2023-02-05T17:54:35.615Z,38.60
2023-02-05T17:59:43.074Z,32.47
2023-02-05T18:04:50.475Z,36.20
2023-02-05T18:09:55.935Z,41.93
2023-02-05T18:15:07.218Z,36.80
2023-02-05T18:20:14.124Z,44.47
2023-02-05T18:25:20.077Z,40.80
2023-02-05T18:30:25.115Z,35.20
2023-02-05T18:35:33.892Z,36.17
2023-02-05T18:40:39.459Z,38.03
2023-02-05T18:45:48.079Z,31.03
2023-02-05T18:50:52.846Z,34.87
2023-02-05T18:56:07.523Z,31.47
2023-02-05T19:01:40.628Z,44.97
2023-02-05T19:06:54.334Z,50.00
2023-02-05T19:12:00.034Z,52.50
2023-02-05T19:17:05.270Z,58.07
2023-02-05T19:22:11.150Z,46.13
2023-02-05T19:27:18.309Z,57.07
2023-02-05T19:32:26.108Z,53.47
2023-02-05T19:37:34.327Z,53.37
2023-02-05T19:42:43.691Z,51.23
2023-02-05T19:47:52.039Z,41.53
2023-02-05T19:53:02.434Z,46.37
2023-02-05T19:58:07.796Z,44.67
2023-02-05T20:03:12.575Z,45.07
2023-02-05T20:08:20.636Z,38.50
2023-02-05T20:13:39.515Z,53.27
2023-02-05T20:18:45.289Z,53.80
2023-02-05T20:23:52.391Z,45.97
2023-02-05T20:29:18.481Z,55.93
2023-02-05T20:34:35.543Z,61.43
2023-02-05T20:39:44.267Z,57.67
2023-02-05T20:44:50.049Z,56.37
2023-02-05T20:49:55.129Z,53.80
2023-02-05T20:55:02.689Z,52.80
2023-02-05T21:00:12.379Z,66.40
2023-02-05T21:05:21.150Z,57.47
2023-02-05T21:10:25.950Z,65.50
2023-02-05T21:15:33.197Z,62.57
2023-02-05T21:20:39.209Z,64.20
2023-02-05T21:25:43.226Z,55.63
2023-02-05T21:30:52.414Z,72.73
2023-02-05T21:35:58.958Z,63.03
2023-02-05T21:41:17.530Z,55.70
2023-02-05T21:46:22.491Z,60.87
2023-02-05T21:51:29.391Z,59.67
2023-02-05T21:56:39.166Z,73.43
2023-02-05T22:01:43.617Z,60.67
2023-02-05T22:06:47.836Z,63.47
2023-02-05T22:11:52.013Z,73.83
2023-02-05T22:16:55.676Z,76.27
2023-02-05T22:21:58.998Z,64.53
2023-02-05T22:27:03.095Z,66.93
2023-02-05T22:32:08.000Z,64.40
2023-02-05T22:37:58.014Z,64.60
2023-02-05T22:43:01.559Z,88.27
2023-02-05T22:48:04.933Z,71.13
2023-02-05T22:53:09.374Z,62.67
2023-02-05T22:58:13.035Z,61.33
2023-02-05T23:03:16.452Z,68.33
2023-02-05T23:08:20.273Z,78.53
2023-02-05T23:13:23.732Z,77.83
2023-02-05T23:18:27.229Z,61.10
2023-02-05T23:23:30.519Z,71.97
2023-02-05T23:28:34.188Z,71.03
2023-02-05T23:33:38.039Z,63.37
2023-02-05T23:38:41.451Z,65.47
2023-02-05T23:43:44.928Z,57.10
2023-02-05T23:48:48.232Z,51.10
2023-02-05T23:53:51.956Z,67.97
2023-02-05T23:58:55.953Z,59.40
